Terminal Aerodrome Forecast
Issued by NWS Sioux Falls, SD

Home | Current Version | Previous Version | Graphics & Text | Print | Product List | Glossary On
Versions: 1 2 3 4 5 6 7 8 9 10 11 12 13 14 15 16 17 18
000
FTUS43 KFSD 250531
TAFSUX
TAF
KSUX 250531Z 2506/2606 14008KT P6SM SCT100
     FM250900 13007KT P6SM SHRA VCTS OVC040CB
     FM251200 13007KT P6SM -SHRA SCT025 OVC035
     FM251500 14009KT P6SM SCT025 BKN035
     FM251800 19010KT P6SM BKN050
     FM252100 19010KT P6SM SCT080=

USA.gov is the U.S. government's official web portal to all federal, state and local government web resources and services.